Time;durP1;ratioP1;P1;durP2;ratioP2;P2;SDS_P1;SDS_P2;PMS_P1;PMS_P2;Temp;Humidity;BMP_temperature;BMP_pressure;BME280_temperature;BME280_humidity;BME280_pressure;Samples;Min_cycle;Max_cycle;Signal;HPM_P1;HPM_P2
2024/01/23 00:01:25;;;;;;;23.13;2.57;;;;;;;-145.18;100.00;46845.97;4994166;28;20034;-66
2024/01/23 00:03:50;;;;;;;23.93;3.30;;;;;;;-145.18;100.00;46851.81;4994312;28;20267;-66
2024/01/23 00:06:16;;;;;;;15.23;2.87;;;;;;;-145.18;100.00;46851.81;4994143;28;20041;-66
2024/01/23 00:08:41;;;;;;;27.07;3.73;;;;;;;-145.18;100.00;46855.72;4976870;28;20030;-66
2024/01/23 00:11:07;;;;;;;24.50;3.17;;;;;;;-145.18;100.00;46851.81;4994372;28;20077;-67
2024/01/23 00:13:32;;;;;;;22.03;3.83;;;;;;;-145.18;100.00;46855.72;4993836;28;20101;-66
2024/01/23 00:15:58;;;;;;;28.57;3.73;;;;;;;-145.18;100.00;46859.63;4994296;28;20033;-66
2024/01/23 00:18:23;;;;;;;26.70;2.80;;;;;;;-145.18;100.00;46853.78;4994450;28;20038;-67
2024/01/23 00:20:48;;;;;;;28.73;3.60;;;;;;;-145.18;100.00;46859.63;4993222;28;20486;-67
2024/01/23 00:23:14;;;;;;;26.43;3.17;;;;;;;-145.18;100.00;46863.53;4993652;28;20109;-66
2024/01/23 00:25:39;;;;;;;26.37;4.57;;;;;;;-145.18;100.00;46861.59;4973030;28;20114;-66
2024/01/23 00:28:06;;;;;;;26.53;3.60;;;;;;;-145.18;100.00;46857.69;4985907;28;20101;-67
2024/01/23 00:30:32;;;;;;;17.47;2.97;;;;;;;-145.18;100.00;46861.59;4994071;28;20049;-66
2024/01/23 00:32:58;;;;;;;32.33;3.10;;;;;;;-145.18;100.00;46865.50;4994368;28;20732;-67
2024/01/23 00:35:24;;;;;;;22.53;2.57;;;;;;;-145.18;100.00;46859.63;4995734;28;20479;-66
2024/01/23 00:37:49;;;;;;;29.27;4.30;;;;;;;-145.18;100.00;46859.63;4994277;28;20268;-67
2024/01/23 00:40:14;;;;;;;20.40;2.77;;;;;;;-145.18;100.00;46859.63;4993646;28;20029;-66
2024/01/23 00:42:40;;;;;;;32.00;3.93;;;;;;;-145.18;100.00;46859.63;4993646;28;20510;-67
2024/01/23 00:45:06;;;;;;;24.33;3.20;;;;;;;-145.18;100.00;46851.81;4993654;28;20026;-66
2024/01/23 00:47:31;;;;;;;18.83;2.63;;;;;;;-145.18;100.00;46853.78;4993816;28;20084;-66
2024/01/23 00:49:57;;;;;;;24.80;3.00;;;;;;;-145.18;100.00;46849.88;4980528;28;20517;-66
2024/01/23 00:52:22;;;;;;;26.93;3.27;;;;;;;-145.18;100.00;46845.97;4993529;28;20072;-66
2024/01/23 00:54:47;;;;;;;36.73;3.83;;;;;;;-145.18;100.00;46847.91;4993250;28;20038;-66
2024/01/23 00:57:13;;;;;;;22.77;3.03;;;;;;;-145.18;100.00;46844.00;4993723;28;20068;-68
2024/01/23 00:59:38;;;;;;;22.13;2.93;;;;;;;-145.18;100.00;46845.97;4992925;28;20150;-66
2024/01/23 01:02:04;;;;;;;26.63;3.37;;;;;;;-145.18;100.00;46845.97;4993641;28;20105;-66
2024/01/23 01:04:29;;;;;;;29.87;4.10;;;;;;;-145.18;100.00;46849.88;4993144;28;20402;-68
2024/01/23 01:06:54;;;;;;;24.60;3.73;;;;;;;-145.18;100.00;46851.81;4993427;28;20604;-68
2024/01/23 01:09:20;;;;;;;18.90;2.67;;;;;;;-145.18;100.00;46847.91;4993040;28;20142;-68
2024/01/23 01:11:45;;;;;;;15.23;3.33;;;;;;;-145.18;100.00;46849.88;4993259;28;20121;-68
2024/01/23 01:14:11;;;;;;;22.03;3.40;;;;;;;-145.18;100.00;46847.91;4991482;28;20030;-68
2024/01/23 01:16:36;;;;;;;22.23;3.50;;;;;;;-145.18;100.00;46845.97;4975541;28;20034;-68
2024/01/23 01:19:03;;;;;;;32.83;4.73;;;;;;;-145.18;100.00;46844.00;4992987;28;20022;-68
2024/01/23 01:21:29;;;;;;;23.47;3.33;;;;;;;-145.18;100.00;46845.97;4991659;28;20078;-68
2024/01/23 01:23:54;;;;;;;22.43;3.00;;;;;;;-145.18;100.00;46842.06;4992574;28;20651;-68
2024/01/23 01:26:19;;;;;;;21.33;2.83;;;;;;;-145.18;100.00;46838.16;4975368;28;20034;-68
2024/01/23 01:28:45;;;;;;;24.07;3.40;;;;;;;-145.18;100.00;46840.09;4990327;28;20043;-68
2024/01/23 01:31:10;;;;;;;29.80;2.97;;;;;;;-145.18;100.00;46840.09;4992903;28;20624;-68
2024/01/23 01:33:35;;;;;;;37.17;4.53;;;;;;;-145.18;100.00;46838.16;4991958;28;20034;-68
2024/01/23 01:36:02;;;;;;;21.90;3.23;;;;;;;-145.18;100.00;46840.09;4992990;28;20037;-68
2024/01/23 01:38:27;;;;;;;30.67;3.33;;;;;;;-145.18;100.00;46834.25;4992733;28;20038;-68
2024/01/23 01:40:54;;;;;;;25.30;3.40;;;;;;;-145.18;100.00;46834.25;4992540;28;20284;-68
2024/01/23 01:43:25;;;;;;;25.17;2.67;;;;;;;-145.18;100.00;46834.25;4992807;28;20030;-69
2024/01/23 01:46:16;;;;;;;27.33;3.33;;;;;;;-145.18;100.00;46832.28;4992622;28;20308;-68
2024/01/23 01:48:42;;;;;;;23.93;2.73;;;;;;;-145.18;100.00;46832.28;4981681;28;20380;-68
2024/01/23 01:51:09;;;;;;;27.70;3.97;;;;;;;-145.18;100.00;46836.19;4992251;28;20268;-68
2024/01/23 01:53:34;;;;;;;18.33;2.83;;;;;;;-145.18;100.00;46832.28;4992682;28;20255;-68
2024/01/23 01:56:02;;;;;;;28.80;3.07;;;;;;;-145.18;100.00;46838.16;4991032;28;20782;-68
2024/01/23 01:58:30;;;;;;;21.97;2.63;;;;;;;-145.18;100.00;46836.19;4992093;28;20034;-68
2024/01/23 02:00:57;;;;;;;19.20;3.20;;;;;;;-145.18;100.00;46840.09;4992189;28;20759;-68
2024/01/23 02:03:23;;;;;;;24.67;3.47;;;;;;;-145.18;100.00;46842.06;4992425;28;20256;-68
2024/01/23 02:05:50;;;;;;;29.13;3.03;;;;;;;-145.18;100.00;46849.88;4992303;28;20282;-68
2024/01/23 02:08:16;;;;;;;27.10;2.90;;;;;;;-145.18;100.00;46849.88;4992214;28;20530;-68
2024/01/23 02:10:42;;;;;;;19.37;2.77;;;;;;;-145.18;100.00;46844.00;4992381;28;20358;-68
2024/01/23 02:13:08;;;;;;;22.27;2.47;;;;;;;-145.18;100.00;46851.81;4974819;28;20355;-68
2024/01/23 02:15:34;;;;;;;34.87;3.77;;;;;;;-145.18;100.00;46847.91;4959037;28;20030;-68
2024/01/23 02:18:00;;;;;;;25.80;3.03;;;;;;;-145.18;100.00;46853.78;4992631;28;20455;-68
2024/01/23 02:20:26;;;;;;;23.00;2.97;;;;;;;-145.18;100.00;46853.78;4991855;28;20113;-68
2024/01/23 02:22:52;;;;;;;29.43;3.60;;;;;;;-145.18;100.00;46851.81;4975022;28;20347;-68
2024/01/23 02:25:18;;;;;;;17.33;2.80;;;;;;;-145.18;100.00;46855.72;4992363;28;20034;-68
2024/01/23 02:27:43;;;;;;;24.20;3.20;;;;;;;-145.18;100.00;46853.78;4992178;28;20906;-68
2024/01/23 02:30:10;;;;;;;21.70;3.07;;;;;;;-145.18;100.00;46857.69;4992234;28;20494;-68
2024/01/23 02:32:35;;;;;;;23.30;3.37;;;;;;;-145.18;100.00;46853.78;4992071;28;20030;-68
2024/01/23 02:35:01;;;;;;;19.30;2.37;;;;;;;-145.18;100.00;46857.69;4991925;28;20354;-68
2024/01/23 02:37:26;;;;;;;24.17;4.50;;;;;;;-145.18;100.00;46859.63;4991831;28;20039;-68
2024/01/23 02:39:51;;;;;;;17.07;2.60;;;;;;;-145.18;100.00;46857.69;4974457;28;20035;-68
2024/01/23 02:42:17;;;;;;;40.30;4.60;;;;;;;-145.18;100.00;46851.81;4992010;28;20057;-68
2024/01/23 02:44:45;;;;;;;24.97;2.90;;;;;;;-145.18;100.00;46849.88;4992617;28;20088;-68
2024/01/23 02:47:11;;;;;;;24.43;3.30;;;;;;;-145.18;100.00;46849.88;4978951;28;20035;-68
2024/01/23 02:49:37;;;;;;;22.77;3.27;;;;;;;-145.18;100.00;46849.88;4978051;28;20275;-67
2024/01/23 02:52:03;;;;;;;24.97;3.87;;;;;;;-145.18;100.00;46849.88;4999274;28;20268;-68
2024/01/23 02:54:31;;;;;;;30.13;3.17;;;;;;;-145.18;100.00;46857.69;4997114;28;20073;-68
2024/01/23 02:56:56;;;;;;;21.90;2.67;;;;;;;-145.18;100.00;46861.59;4995807;28;20264;-68
2024/01/23 02:59:21;;;;;;;22.53;3.23;;;;;;;-145.18;100.00;46855.72;4995741;28;20291;-68
2024/01/23 03:01:47;;;;;;;24.90;4.23;;;;;;;-145.18;100.00;46857.69;4977777;28;20533;-68
2024/01/23 03:04:12;;;;;;;27.27;3.30;;;;;;;-145.18;100.00;46853.78;4995211;28;20046;-68
2024/01/23 03:06:38;;;;;;;24.33;4.47;;;;;;;-145.18;100.00;46859.63;4995145;28;20080;-68
2024/01/23 03:09:03;;;;;;;15.40;3.30;;;;;;;-145.18;100.00;46851.81;4977706;28;20030;-68
2024/01/23 03:11:28;;;;;;;26.10;3.47;;;;;;;-145.18;100.00;46857.69;4995470;28;20386;-68
2024/01/23 03:13:54;;;;;;;18.27;3.17;;;;;;;-145.18;100.00;46847.91;4995585;28;20399;-68
2024/01/23 03:16:20;;;;;;;23.70;3.00;;;;;;;-145.18;100.00;46849.88;4995322;28;20073;-68
2024/01/23 03:18:46;;;;;;;29.10;3.33;;;;;;;-145.18;100.00;46847.91;4995512;28;20034;-68
2024/01/23 03:21:12;;;;;;;23.27;4.43;;;;;;;-145.18;100.00;46845.97;4995359;28;20031;-68
2024/01/23 03:23:37;;;;;;;21.00;2.57;;;;;;;-145.18;100.00;46849.88;4995451;28;20264;-68
2024/01/23 03:26:03;;;;;;;32.90;5.13;;;;;;;-145.18;100.00;46845.97;4993650;28;20525;-66
2024/01/23 03:28:28;;;;;;;25.90;3.60;;;;;;;-145.18;100.00;46844.00;4994911;28;20062;-66
2024/01/23 03:30:53;;;;;;;27.47;3.80;;;;;;;-145.18;100.00;46840.09;4977345;28;20487;-66
2024/01/23 03:33:19;;;;;;;29.70;2.90;;;;;;;-145.18;100.00;46840.09;4994725;28;20501;-66
2024/01/23 03:35:44;;;;;;;33.47;3.07;;;;;;;-145.18;100.00;46830.34;4994814;28;20042;-66
2024/01/23 03:38:12;;;;;;;31.50;2.93;;;;;;;-145.18;100.00;46832.28;4995097;28;20064;-66
2024/01/23 03:40:38;;;;;;;18.63;2.57;;;;;;;-145.18;100.00;46830.34;4994722;28;20040;-66
2024/01/23 03:43:04;;;;;;;25.67;2.80;;;;;;;-145.18;100.00;46828.38;4995071;28;20276;-66
2024/01/23 03:45:29;;;;;;;24.73;3.60;;;;;;;-145.18;100.00;46826.44;4994286;28;20260;-66
2024/01/23 03:47:55;;;;;;;26.77;3.97;;;;;;;-145.18;100.00;46832.28;4976920;28;20061;-66
2024/01/23 03:50:20;;;;;;;29.07;5.73;;;;;;;-145.18;100.00;46832.28;4976933;28;20498;-66
2024/01/23 03:52:46;;;;;;;25.40;3.20;;;;;;;-145.18;100.00;46828.38;4994843;28;20042;-66
2024/01/23 03:55:11;;;;;;;24.30;2.97;;;;;;;-145.18;100.00;46832.28;4994748;28;20022;-66
2024/01/23 03:57:37;;;;;;;26.03;3.60;;;;;;;-145.18;100.00;46832.28;4977293;28;20030;-66
2024/01/23 04:00:04;;;;;;;25.43;3.60;;;;;;;-145.18;100.00;46828.38;4994056;28;20056;-66
2024/01/23 04:02:31;;;;;;;31.83;4.03;;;;;;;-145.18;100.00;46832.28;4994007;28;20031;-66
2024/01/23 04:04:57;;;;;;;18.57;3.30;;;;;;;-145.18;100.00;46826.44;4994511;28;20267;-66
2024/01/23 04:07:23;;;;;;;22.20;3.87;;;;;;;-145.18;100.00;46832.28;4994635;28;20266;-66
2024/01/23 04:09:49;;;;;;;24.60;3.37;;;;;;;-145.18;100.00;46826.44;4994278;28;20335;-66
2024/01/23 04:12:14;;;;;;;28.17;3.40;;;;;;;-145.18;100.00;46828.38;4976665;28;20383;-66
2024/01/23 04:14:40;;;;;;;23.10;3.00;;;;;;;-145.18;100.00;46828.38;4994167;28;20274;-66
2024/01/23 04:17:06;;;;;;;33.70;4.07;;;;;;;-145.18;100.00;46826.44;4994313;28;20034;-65
2024/01/23 04:19:31;;;;;;;15.17;2.60;;;;;;;-145.18;100.00;46824.47;4976108;28;20270;-66
2024/01/23 04:21:57;;;;;;;20.33;2.67;;;;;;;-145.18;100.00;46822.53;4993932;28;20038;-66
2024/01/23 04:24:22;;;;;;;29.43;3.23;;;;;;;-145.18;100.00;46826.44;4993801;28;20042;-66
2024/01/23 04:26:48;;;;;;;32.33;4.57;;;;;;;-145.18;100.00;46820.56;4993953;28;20042;-65
2024/01/23 04:29:14;;;;;;;24.50;3.30;;;;;;;-145.18;100.00;46822.53;4993579;28;20050;-66
2024/01/23 04:31:39;;;;;;;25.90;5.00;;;;;;;-145.18;100.00;46818.63;4993588;28;20029;-66
2024/01/23 04:34:05;;;;;;;21.83;3.60;;;;;;;-145.18;100.00;46826.44;4993533;28;20050;-66
2024/01/23 04:36:30;;;;;;;31.70;3.77;;;;;;;-145.18;100.00;46822.53;4993694;28;20031;-68
2024/01/23 04:38:56;;;;;;;31.37;4.20;;;;;;;-145.18;100.00;46824.47;4993666;28;20061;-68
2024/01/23 04:41:22;;;;;;;21.23;3.43;;;;;;;-145.18;100.00;46824.47;4976270;28;20054;-68
2024/01/23 04:43:48;;;;;;;19.77;3.00;;;;;;;-145.18;100.00;46828.38;4993402;28;20038;-68
2024/01/23 04:46:13;;;;;;;25.40;3.03;;;;;;;-145.18;100.00;46822.53;4993512;28;20312;-68
2024/01/23 04:48:39;;;;;;;27.43;3.07;;;;;;;-145.18;100.00;46832.28;4993459;28;20382;-68
2024/01/23 04:51:04;;;;;;;31.37;3.77;;;;;;;-145.18;100.00;46826.44;4976046;28;20034;-68
2024/01/23 04:53:32;;;;;;;31.37;4.13;;;;;;;-145.18;100.00;46828.38;4993324;28;20388;-68
2024/01/23 04:55:58;;;;;;;21.97;3.40;;;;;;;-145.18;100.00;46830.34;4993612;28;20109;-68
2024/01/23 04:58:23;;;;;;;25.33;3.00;;;;;;;-145.18;100.00;46832.28;4993486;28;20315;-68
2024/01/23 05:00:49;;;;;;;34.30;4.03;;;;;;;-145.18;100.00;46832.28;4975527;28;20294;-68
2024/01/23 05:03:14;;;;;;;22.87;3.73;;;;;;;-145.18;100.00;46832.28;4975481;28;20039;-68
2024/01/23 05:05:39;;;;;;;22.97;3.47;;;;;;;-145.18;100.00;46830.34;4975557;28;20040;-67
2024/01/23 05:08:05;;;;;;;20.47;4.03;;;;;;;-145.18;100.00;46836.19;4996056;28;20042;-68
2024/01/23 05:10:31;;;;;;;22.13;2.90;;;;;;;-145.18;100.00;46832.28;4977138;28;20109;-69
2024/01/23 05:12:57;;;;;;;27.87;4.03;;;;;;;-145.18;100.00;46836.19;4975061;28;20030;-68
2024/01/23 05:15:22;;;;;;;25.70;3.63;;;;;;;-145.18;100.00;46834.25;4993173;28;20479;-68
2024/01/23 05:17:48;;;;;;;25.37;2.73;;;;;;;-145.18;100.00;46838.16;4992735;28;20494;-68
2024/01/23 05:20:13;;;;;;;27.37;2.73;;;;;;;-145.18;100.00;46842.06;4993325;28;20085;-68
2024/01/23 05:22:38;;;;;;;26.60;3.60;;;;;;;-145.18;100.00;46844.00;4992689;28;20402;-68
2024/01/23 05:25:04;;;;;;;24.50;3.17;;;;;;;-145.18;100.00;46844.00;4993266;28;20086;-68
2024/01/23 05:27:30;;;;;;;22.50;4.40;;;;;;;-145.18;100.00;46845.97;4992414;28;20065;-68
2024/01/23 05:29:55;;;;;;;30.73;5.87;;;;;;;-145.18;100.00;46844.00;4993016;28;20511;-68
2024/01/23 05:32:21;;;;;;;18.67;3.20;;;;;;;-145.18;100.00;46845.97;4993022;28;20038;-68
2024/01/23 05:34:46;;;;;;;24.30;4.40;;;;;;;-145.18;100.00;46847.91;4992979;28;20041;-68
2024/01/23 05:37:12;;;;;;;18.80;2.80;;;;;;;-145.18;100.00;46849.88;4991596;28;20512;-68
2024/01/23 05:39:38;;;;;;;31.07;3.43;;;;;;;-145.18;100.00;46849.88;4975236;28;20041;-68
2024/01/23 05:42:05;;;;;;;20.97;3.33;;;;;;;-145.18;100.00;46853.78;4974914;28;20034;-68
2024/01/23 05:44:31;;;;;;;26.17;3.93;;;;;;;-145.18;100.00;46853.78;4992847;28;20264;-68
2024/01/23 05:46:56;;;;;;;21.90;2.93;;;;;;;-145.18;100.00;46857.69;4992980;28;20264;-66
2024/01/23 05:49:22;;;;;;;23.93;3.10;;;;;;;-145.18;100.00;46857.69;4992599;28;20233;-66
2024/01/23 05:51:47;;;;;;;24.43;3.43;;;;;;;-145.18;100.00;46861.59;4992276;28;20030;-66
2024/01/23 05:54:13;;;;;;;26.60;4.80;;;;;;;-145.18;100.00;46863.53;4992555;28;20038;-66
2024/01/23 05:56:38;;;;;;;19.23;3.90;;;;;;;-145.18;100.00;46863.53;4992663;28;20042;-66
2024/01/23 05:59:03;;;;;;;27.37;3.03;;;;;;;-145.18;100.00;46865.50;4992712;28;20406;-66
2024/01/23 06:01:31;;;;;;;15.13;2.60;;;;;;;-145.18;100.00;46867.44;4992030;28;20168;-66
2024/01/23 06:03:57;;;;;;;26.37;3.47;;;;;;;-145.18;100.00;46865.50;4992416;28;20054;-66
2024/01/23 06:06:22;;;;;;;24.57;3.23;;;;;;;-145.18;100.00;46867.44;4992217;28;20783;-66
2024/01/23 06:08:48;;;;;;;24.43;3.23;;;;;;;-145.18;100.00;46867.44;4990804;28;20047;-66
2024/01/23 06:11:13;;;;;;;27.20;4.63;;;;;;;-145.18;100.00;46865.50;4991563;28;20034;-66
2024/01/23 06:13:39;;;;;;;22.40;3.40;;;;;;;-145.18;100.00;46869.41;4991567;28;20033;-66
2024/01/23 06:16:05;;;;;;;26.20;2.97;;;;;;;-145.18;100.00;46865.50;4988139;28;20034;-66
2024/01/23 06:18:30;;;;;;;33.97;4.23;;;;;;;-145.18;100.00;46871.38;4984651;28;20026;-66
2024/01/23 06:20:57;;;;;;;19.60;3.13;;;;;;;-145.18;100.00;46871.38;4990511;28;20101;-66
2024/01/23 06:23:24;;;;;;;18.40;3.90;;;;;;;-145.18;100.00;46869.41;4992502;28;20089;-66
2024/01/23 06:25:50;;;;;;;30.83;3.03;;;;;;;-145.18;100.00;46873.31;4995010;28;20263;-66
2024/01/23 06:28:15;;;;;;;17.97;2.80;;;;;;;-145.18;100.00;46869.41;4993654;28;20780;-66
2024/01/23 06:30:40;;;;;;;27.77;3.33;;;;;;;-145.18;100.00;46871.38;4996157;28;20026;-66
2024/01/23 06:33:06;;;;;;;26.47;3.00;;;;;;;-145.18;100.00;46879.19;4996198;28;20034;-66
2024/01/23 06:35:31;;;;;;;27.60;3.40;;;;;;;-145.18;100.00;46877.22;4978173;28;20084;-66
2024/01/23 06:37:57;;;;;;;30.80;3.70;;;;;;;-145.18;100.00;46875.28;4995301;28;20030;-66
2024/01/23 06:40:23;;;;;;;19.07;3.00;;;;;;;-145.18;100.00;46879.19;4995538;28;20153;-66
2024/01/23 06:42:48;;;;;;;22.23;3.37;;;;;;;-145.18;100.00;46881.13;4995430;28;20030;-66
2024/01/23 06:45:14;;;;;;;28.03;3.97;;;;;;;-145.18;100.00;46883.09;4994096;28;20597;-67
2024/01/23 06:47:40;;;;;;;26.83;3.80;;;;;;;-145.18;100.00;46881.13;4993786;28;20530;-66
2024/01/23 06:50:05;;;;;;;27.90;3.70;;;;;;;-145.18;100.00;46883.09;4976341;28;20053;-66
2024/01/23 06:52:31;;;;;;;32.03;3.57;;;;;;;-145.18;100.00;46883.09;4976702;28;20037;-67
2024/01/23 06:54:56;;;;;;;24.03;3.60;;;;;;;-145.18;100.00;46885.03;4989005;28;20084;-66
2024/01/23 06:57:22;;;;;;;26.70;3.70;;;;;;;-145.18;100.00;46887.00;4993589;28;20117;-66
2024/01/23 06:59:47;;;;;;;29.17;3.47;;;;;;;-145.18;100.00;46887.00;4990661;28;20042;-66
2024/01/23 07:02:13;;;;;;;34.67;3.83;;;;;;;-145.18;100.00;46883.09;4988388;28;20030;-66
2024/01/23 07:04:40;;;;;;;24.03;3.43;;;;;;;-145.18;100.00;46883.09;4993168;28;20027;-66
2024/01/23 07:07:05;;;;;;;31.90;4.43;;;;;;;-145.18;100.00;46883.09;4993735;28;20026;-66
2024/01/23 07:09:31;;;;;;;31.63;4.77;;;;;;;-145.18;100.00;46881.13;4993835;28;20306;-66
2024/01/23 07:11:56;;;;;;;25.37;3.53;;;;;;;-145.18;100.00;46883.09;4992455;28;20030;-66
2024/01/23 07:14:22;;;;;;;31.03;3.10;;;;;;;-145.18;100.00;46887.00;4977946;28;20089;-66
2024/01/23 07:16:47;;;;;;;30.93;3.83;;;;;;;-145.18;100.00;46887.00;4995544;28;20038;-66
2024/01/23 07:19:12;;;;;;;29.53;5.57;;;;;;;-145.18;100.00;46887.00;4995283;28;20561;-66
2024/01/23 07:21:40;;;;;;;41.97;5.87;;;;;;;-145.18;100.00;46888.94;4995000;28;20085;-66
2024/01/23 07:24:07;;;;;;;40.93;7.47;;;;;;;-145.18;100.00;46890.91;4995962;28;20395;-66
2024/01/23 07:26:32;;;;;;;24.50;5.13;;;;;;;-145.18;100.00;46892.84;4996995;28;20699;-66
2024/01/23 07:28:57;;;;;;;24.13;3.53;;;;;;;-145.18;100.00;46888.94;4992784;28;20331;-66
2024/01/23 07:31:23;;;;;;;30.47;4.83;;;;;;;-145.18;100.00;46888.94;4995018;28;20031;-66
2024/01/23 07:33:48;;;;;;;32.83;3.27;;;;;;;-145.18;100.00;46894.81;4977401;28;20117;-66
2024/01/23 07:36:14;;;;;;;24.57;3.50;;;;;;;-145.18;100.00;46892.84;4994926;28;20451;-66
2024/01/23 07:38:39;;;;;;;35.90;5.77;;;;;;;-145.18;100.00;46894.81;4994901;28;20127;-66
2024/01/23 07:41:04;;;;;;;34.63;3.67;;;;;;;-145.18;100.00;46898.72;4994945;28;20030;-66
2024/01/23 07:43:30;;;;;;;22.17;3.50;;;;;;;-145.18;100.00;46898.72;4995011;28;20037;-66
2024/01/23 07:45:55;;;;;;;25.57;2.80;;;;;;;-145.18;100.00;46902.63;4994775;28;20038;-66
2024/01/23 07:48:21;;;;;;;24.80;3.17;;;;;;;-145.18;100.00;46898.72;4977022;28;20068;-66
2024/01/23 07:50:47;;;;;;;26.73;4.50;;;;;;;-145.18;100.00;46900.66;4994826;28;20116;-66
2024/01/23 07:53:12;;;;;;;26.23;4.70;;;;;;;-145.18;100.00;46896.75;4994714;28;20509;-66
2024/01/23 07:55:38;;;;;;;24.83;3.30;;;;;;;-145.18;100.00;46894.81;4995064;28;20268;-66
2024/01/23 07:58:03;;;;;;;26.10;3.70;;;;;;;-145.18;100.00;46894.81;4994943;28;20080;-66
2024/01/23 08:00:29;;;;;;;26.33;4.27;;;;;;;-145.18;100.00;46896.75;4994456;28;20030;-66
2024/01/23 08:02:54;;;;;;;22.23;2.93;;;;;;;-145.18;100.00;46892.84;4994300;28;20049;-66
2024/01/23 08:05:20;;;;;;;22.83;3.20;;;;;;;-145.18;100.00;46888.94;4994714;28;20141;-66
2024/01/23 08:07:45;;;;;;;32.30;4.73;;;;;;;-145.18;100.00;46887.00;4994631;28;20088;-66
2024/01/23 08:10:11;;;;;;;38.00;4.03;;;;;;;-145.18;100.00;46885.03;4994676;28;20045;-66
2024/01/23 08:12:36;;;;;;;23.17;4.50;;;;;;;-145.18;100.00;46887.00;4994405;28;20042;-66
2024/01/23 08:15:02;;;;;;;31.40;5.33;;;;;;;-145.18;100.00;46885.03;4994160;28;20041;-66
2024/01/23 08:17:28;;;;;;;27.03;4.43;;;;;;;-145.18;100.00;46885.03;4994397;28;20030;-67
2024/01/23 08:19:53;;;;;;;26.93;4.20;;;;;;;-145.18;100.00;46883.09;4994013;28;20633;-66
2024/01/23 08:22:19;;;;;;;22.73;2.90;;;;;;;-145.18;100.00;46883.09;4994085;28;20038;-66
2024/01/23 08:24:45;;;;;;;33.57;5.57;;;;;;;-145.18;100.00;46881.13;4993734;28;20037;-66
2024/01/23 08:27:10;;;;;;;31.17;3.73;;;;;;;-145.18;100.00;46879.19;4994148;28;20038;-66
2024/01/23 08:29:36;;;;;;;29.83;3.67;;;;;;;-145.18;100.00;46875.28;4993781;28;20046;-66
2024/01/23 08:32:01;;;;;;;39.77;3.90;;;;;;;-145.18;100.00;46875.28;4976596;28;20038;-66
2024/01/23 08:34:26;;;;;;;38.03;4.93;;;;;;;-145.18;100.00;46869.41;4993778;28;20121;-66
2024/01/23 08:36:52;;;;;;;28.87;4.43;;;;;;;-145.18;100.00;46871.38;4993831;28;20482;-66
2024/01/23 08:39:18;;;;;;;36.53;4.23;;;;;;;-145.18;100.00;46861.59;4960320;28;20034;-66
2024/01/23 08:41:43;;;;;;;28.33;4.00;;;;;;;-145.18;100.00;46861.59;4993564;28;20443;-66
2024/01/23 08:44:08;;;;;;;22.63;3.47;;;;;;;-145.18;100.00;46859.63;4993004;28;20037;-66
2024/01/23 08:46:34;;;;;;;28.37;4.17;;;;;;;-145.18;100.00;46857.69;4993907;28;20040;-66
2024/01/23 08:48:59;;;;;;;37.20;4.87;;;;;;;-145.18;100.00;46859.63;4993155;28;20652;-66
2024/01/23 08:51:27;;;;;;;20.77;3.63;;;;;;;-145.18;100.00;46851.81;4976582;28;20030;-66
2024/01/23 08:53:53;;;;;;;27.63;4.77;;;;;;;-145.18;100.00;46851.81;4993229;28;20040;-66
2024/01/23 08:56:21;;;;;;;22.43;3.10;;;;;;;-145.18;100.00;46849.88;4993794;28;20351;-66
2024/01/23 08:58:49;;;;;;;25.07;4.87;;;;;;;-145.18;100.00;46855.72;4993507;28;20498;-66
2024/01/23 09:01:16;;;;;;;26.23;3.93;;;;;;;-145.18;100.00;46847.91;4993612;28;20367;-66
2024/01/23 09:03:42;;;;;;;30.53;4.57;;;;;;;-145.18;100.00;46851.81;4993452;28;20272;-66
2024/01/23 09:06:09;;;;;;;34.10;4.93;;;;;;;-145.18;100.00;46844.00;4993566;28;20316;-66
2024/01/23 09:08:35;;;;;;;27.00;4.13;;;;;;;-145.18;100.00;46845.97;4993499;28;20132;-66
2024/01/23 09:11:00;;;;;;;25.77;3.30;;;;;;;-145.18;100.00;46842.06;4993458;28;20737;-66
2024/01/23 09:13:30;;;;;;;42.40;5.67;;;;;;;-145.18;100.00;46842.06;4992948;28;20027;-66
2024/01/23 09:15:56;;;;;;;32.60;3.80;;;;;;;-145.18;100.00;46840.09;4993275;28;20030;-68
2024/01/23 09:18:21;;;;;;;26.40;3.97;;;;;;;-145.18;100.00;46836.19;4993495;28;20616;-68
2024/01/23 09:20:46;;;;;;;27.30;3.47;;;;;;;-145.18;100.00;46840.09;4992954;28;20049;-68
2024/01/23 09:23:12;;;;;;;25.17;3.73;;;;;;;-145.18;100.00;46834.25;4993467;28;20480;-68
2024/01/23 09:25:37;;;;;;;25.87;2.93;;;;;;;-145.18;100.00;46836.19;4975196;28;20038;-68
2024/01/23 09:28:03;;;;;;;22.40;3.67;;;;;;;-145.18;100.00;46832.28;4975329;28;20035;-68
2024/01/23 09:30:28;;;;;;;23.90;3.70;;;;;;;-145.18;100.00;46832.28;4992942;28;20080;-68
2024/01/23 09:32:54;;;;;;;30.47;4.30;;;;;;;-145.18;100.00;46830.34;4993293;28;20486;-68
2024/01/23 09:35:20;;;;;;;31.67;5.10;;;;;;;-145.18;100.00;46830.34;4993119;28;20387;-68
2024/01/23 09:37:45;;;;;;;23.90;3.40;;;;;;;-145.18;100.00;46834.25;4992772;28;20034;-68
2024/01/23 09:40:11;;;;;;;33.50;4.90;;;;;;;-145.18;100.00;46826.44;4992885;28;20038;-69
2024/01/23 09:42:38;;;;;;;34.20;3.63;;;;;;;-145.18;100.00;46826.44;4975237;28;20097;-68
2024/01/23 09:45:16;;;;;;;31.13;5.50;;;;;;;-145.18;100.00;46822.53;4996341;28;20113;-68
2024/01/23 09:47:42;;;;;;;24.80;3.50;;;;;;;-145.18;100.00;46822.53;4983568;28;20256;-68
2024/01/23 09:50:11;;;;;;;25.03;3.20;;;;;;;-145.18;100.00;46818.63;4992701;28;20268;-68
2024/01/23 09:52:38;;;;;;;21.67;3.20;;;;;;;-145.18;100.00;46822.53;4992870;28;20260;-68
2024/01/23 09:55:04;;;;;;;23.73;3.50;;;;;;;-145.18;100.00;46820.56;4992080;28;20644;-68
2024/01/23 09:57:31;;;;;;;17.87;3.37;;;;;;;-145.18;100.00;46818.63;4975257;28;20346;-68
2024/01/23 09:59:56;;;;;;;28.87;3.50;;;;;;;-145.18;100.00;46818.63;4974790;28;20262;-68
2024/01/23 10:02:23;;;;;;;32.20;4.00;;;;;;;-145.18;100.00;46820.56;4992930;28;20736;-68
2024/01/23 10:04:52;;;;;;;26.47;4.07;;;;;;;-145.18;100.00;46816.66;4992311;28;20062;-68
2024/01/23 10:07:18;;;;;;;25.00;4.10;;;;;;;-145.18;100.00;46812.75;4992296;28;20260;-68
2024/01/23 10:10:04;;;;;;;17.90;3.53;;;;;;;-145.18;100.00;46812.75;4992280;28;20264;-68
2024/01/23 10:12:32;;;;;;;32.77;3.50;;;;;;;-145.18;100.00;46810.81;4992572;28;20037;-68
2024/01/23 10:14:58;;;;;;;22.27;3.80;;;;;;;-145.18;100.00;46810.81;4992179;28;20256;-68
2024/01/23 10:17:24;;;;;;;25.60;5.60;;;;;;;-145.18;100.00;46808.84;4992726;28;20268;-68
2024/01/23 10:19:49;;;;;;;21.47;3.17;;;;;;;-145.18;100.00;46803.00;4992062;28;20755;-68
2024/01/23 10:22:16;;;;;;;19.93;3.27;;;;;;;-145.18;100.00;46803.00;4992363;28;20041;-68
2024/01/23 10:24:42;;;;;;;33.97;4.53;;;;;;;-145.18;100.00;46797.13;4992135;28;20034;-68
2024/01/23 10:27:07;;;;;;;28.17;3.83;;;;;;;-145.18;100.00;46801.03;4992630;28;20267;-66
2024/01/23 10:29:34;;;;;;;27.43;5.10;;;;;;;-145.18;100.00;46795.19;4991958;28;20108;-66
2024/01/23 10:31:59;;;;;;;27.10;3.13;;;;;;;-145.18;100.00;46793.22;4974798;28;20022;-66
2024/01/23 10:34:26;;;;;;;21.47;3.00;;;;;;;-145.18;100.00;46793.22;4992395;28;20339;-66
2024/01/23 10:36:55;;;;;;;39.77;5.77;;;;;;;-145.18;100.00;46795.19;4992498;28;20062;-66
2024/01/23 10:39:23;;;;;;;36.07;6.00;;;;;;;-145.18;100.00;46797.13;4992464;28;20673;-66
2024/01/23 10:41:51;;;;;;;29.27;3.87;;;;;;;-145.18;100.00;46795.19;4990647;28;20768;-66
2024/01/23 10:44:21;;;;;;;26.87;4.07;;;;;;;-145.18;100.00;46793.22;4980511;28;20260;-66
2024/01/23 10:46:48;;;;;;;20.97;3.20;;;;;;;-145.18;100.00;46793.22;4992235;28;20268;-66
2024/01/23 10:49:15;;;;;;;31.37;4.53;;;;;;;-145.18;100.00;46791.28;4992411;28;20264;-66
2024/01/23 10:51:44;;;;;;;29.47;5.83;;;;;;;-145.18;100.00;46791.28;4991991;28;20278;-66
2024/01/23 10:54:18;;;;;;;30.73;4.97;;;;;;;-145.18;100.00;46785.41;4992441;28;20268;-66
2024/01/23 10:56:45;;;;;;;37.80;5.47;;;;;;;-145.18;100.00;46785.41;4991834;28;20264;-66